sensor_id;sensor_type;location;lat;lon;timestamp;temperature;humidity
32097;DHT22;18610;49.916;8.284;2024-03-17T00:01:00;8.30;99.90
32097;DHT22;18610;49.916;8.284;2024-03-17T00:03:27;8.30;99.90
32097;DHT22;18610;49.916;8.284;2024-03-17T00:05:56;8.20;99.90
32097;DHT22;18610;49.916;8.284;2024-03-17T00:08:23;8.20;99.90
32097;DHT22;18610;49.916;8.284;2024-03-17T00:10:50;8.20;99.90
32097;DHT22;18610;49.916;8.284;2024-03-17T00:13:17;8.20;99.90
32097;DHT22;18610;49.916;8.284;2024-03-17T00:15:43;8.20;99.90
32097;DHT22;18610;49.916;8.284;2024-03-17T00:18:10;8.10;99.90
32097;DHT22;18610;49.916;8.284;2024-03-17T00:20:36;8.20;99.90
32097;DHT22;18610;49.916;8.284;2024-03-17T00:23:05;8.20;99.90
32097;DHT22;18610;49.916;8.284;2024-03-17T00:25:32;8.20;99.90
32097;DHT22;18610;49.916;8.284;2024-03-17T00:27:59;8.20;99.90
32097;DHT22;18610;49.916;8.284;2024-03-17T00:30:25;8.20;99.90
32097;DHT22;18610;49.916;8.284;2024-03-17T00:32:52;8.20;99.90
32097;DHT22;18610;49.916;8.284;2024-03-17T00:35:18;8.10;99.90
32097;DHT22;18610;49.916;8.284;2024-03-17T00:37:47;8.10;99.90
32097;DHT22;18610;49.916;8.284;2024-03-17T00:40:14;8.10;99.90
32097;DHT22;18610;49.916;8.284;2024-03-17T00:42:41;8.10;99.90
32097;DHT22;18610;49.916;8.284;2024-03-17T00:45:08;8.00;99.90
32097;DHT22;18610;49.916;8.284;2024-03-17T00:47:35;8.00;99.90
32097;DHT22;18610;49.916;8.284;2024-03-17T00:50:01;7.90;99.90
32097;DHT22;18610;49.916;8.284;2024-03-17T00:52:28;7.90;99.90
32097;DHT22;18610;49.916;8.284;2024-03-17T00:54:53;7.90;99.90
32097;DHT22;18610;49.916;8.284;2024-03-17T00:57:22;7.80;99.90
32097;DHT22;18610;49.916;8.284;2024-03-17T00:59:47;7.80;99.90
32097;DHT22;18610;49.916;8.284;2024-03-17T01:02:16;7.70;99.90
32097;DHT22;18610;49.916;8.284;2024-03-17T01:04:42;7.70;99.90
32097;DHT22;18610;49.916;8.284;2024-03-17T01:07:09;7.70;99.90
32097;DHT22;18610;49.916;8.284;2024-03-17T01:09:35;7.60;99.90
32097;DHT22;18610;49.916;8.284;2024-03-17T01:12:02;7.60;99.90
32097;DHT22;18610;49.916;8.284;2024-03-17T01:14:30;7.50;99.90
32097;DHT22;18610;49.916;8.284;2024-03-17T01:16:57;7.50;99.90
32097;DHT22;18610;49.916;8.284;2024-03-17T01:19:23;7.40;99.90
32097;DHT22;18610;49.916;8.284;2024-03-17T01:21:50;7.30;99.90
32097;DHT22;18610;49.916;8.284;2024-03-17T01:24:17;7.30;99.90
32097;DHT22;18610;49.916;8.284;2024-03-17T01:26:43;7.20;99.90
32097;DHT22;18610;49.916;8.284;2024-03-17T01:29:10;7.10;99.90
32097;DHT22;18610;49.916;8.284;2024-03-17T01:31:38;7.00;99.90
32097;DHT22;18610;49.916;8.284;2024-03-17T01:34:04;6.90;99.90
32097;DHT22;18610;49.916;8.284;2024-03-17T01:36:30;6.90;99.90
32097;DHT22;18610;49.916;8.284;2024-03-17T01:38:56;6.90;99.90
32097;DHT22;18610;49.916;8.284;2024-03-17T01:41:23;6.80;99.90
32097;DHT22;18610;49.916;8.284;2024-03-17T01:43:49;6.80;99.90
32097;DHT22;18610;49.916;8.284;2024-03-17T01:46:17;6.80;99.90
32097;DHT22;18610;49.916;8.284;2024-03-17T01:48:44;6.70;99.90
32097;DHT22;18610;49.916;8.284;2024-03-17T01:51:11;6.70;99.90
32097;DHT22;18610;49.916;8.284;2024-03-17T01:53:39;6.60;99.90
32097;DHT22;18610;49.916;8.284;2024-03-17T01:56:07;6.60;99.90
32097;DHT22;18610;49.916;8.284;2024-03-17T01:58:36;6.50;99.90
32097;DHT22;18610;49.916;8.284;2024-03-17T02:01:03;6.50;99.90
32097;DHT22;18610;49.916;8.284;2024-03-17T02:03:29;6.40;99.90
32097;DHT22;18610;49.916;8.284;2024-03-17T02:05:58;6.40;99.90
32097;DHT22;18610;49.916;8.284;2024-03-17T02:08:25;6.40;99.90
32097;DHT22;18610;49.916;8.284;2024-03-17T02:10:53;6.40;99.90
32097;DHT22;18610;49.916;8.284;2024-03-17T02:13:19;6.40;99.90
32097;DHT22;18610;49.916;8.284;2024-03-17T02:15:46;6.40;99.90
32097;DHT22;18610;49.916;8.284;2024-03-17T02:18:12;6.40;99.90
32097;DHT22;18610;49.916;8.284;2024-03-17T02:20:39;6.30;99.90
32097;DHT22;18610;49.916;8.284;2024-03-17T02:23:26;6.30;99.90
32097;DHT22;18610;49.916;8.284;2024-03-17T02:25:53;6.30;99.90
32097;DHT22;18610;49.916;8.284;2024-03-17T02:28:19;6.30;99.90
32097;DHT22;18610;49.916;8.284;2024-03-17T02:30:46;6.20;99.90
32097;DHT22;18610;49.916;8.284;2024-03-17T02:33:11;6.20;99.90
32097;DHT22;18610;49.916;8.284;2024-03-17T02:35:38;6.20;99.90
32097;DHT22;18610;49.916;8.284;2024-03-17T02:38:04;6.20;99.90
32097;DHT22;18610;49.916;8.284;2024-03-17T02:40:34;6.20;99.90
32097;DHT22;18610;49.916;8.284;2024-03-17T02:43:00;6.10;99.90
32097;DHT22;18610;49.916;8.284;2024-03-17T02:45:27;6.00;99.90
32097;DHT22;18610;49.916;8.284;2024-03-17T02:47:53;6.00;99.90
32097;DHT22;18610;49.916;8.284;2024-03-17T02:50:20;6.00;99.90
32097;DHT22;18610;49.916;8.284;2024-03-17T02:52:47;6.00;99.90
32097;DHT22;18610;49.916;8.284;2024-03-17T02:55:14;6.00;99.90
32097;DHT22;18610;49.916;8.284;2024-03-17T02:57:44;5.90;99.90
32097;DHT22;18610;49.916;8.284;2024-03-17T03:00:11;5.90;99.90
32097;DHT22;18610;49.916;8.284;2024-03-17T03:02:38;5.90;99.90
32097;DHT22;18610;49.916;8.284;2024-03-17T03:05:06;5.90;99.90
32097;DHT22;18610;49.916;8.284;2024-03-17T03:07:33;5.90;99.90
32097;DHT22;18610;49.916;8.284;2024-03-17T03:09:59;5.90;99.90
32097;DHT22;18610;49.916;8.284;2024-03-17T03:12:26;5.90;99.90
32097;DHT22;18610;49.916;8.284;2024-03-17T03:14:54;5.80;99.90
32097;DHT22;18610;49.916;8.284;2024-03-17T03:17:21;5.80;99.90
32097;DHT22;18610;49.916;8.284;2024-03-17T03:19:49;5.80;99.90
32097;DHT22;18610;49.916;8.284;2024-03-17T03:22:16;5.80;99.90
32097;DHT22;18610;49.916;8.284;2024-03-17T03:24:42;5.70;99.90
32097;DHT22;18610;49.916;8.284;2024-03-17T03:27:12;5.70;99.90
32097;DHT22;18610;49.916;8.284;2024-03-17T03:29:39;5.60;99.90
32097;DHT22;18610;49.916;8.284;2024-03-17T03:32:07;5.60;99.90
32097;DHT22;18610;49.916;8.284;2024-03-17T03:34:34;5.50;99.90
32097;DHT22;18610;49.916;8.284;2024-03-17T03:37:00;5.60;99.90
32097;DHT22;18610;49.916;8.284;2024-03-17T03:39:27;5.50;99.90
32097;DHT22;18610;49.916;8.284;2024-03-17T03:41:57;5.50;99.90
32097;DHT22;18610;49.916;8.284;2024-03-17T03:44:24;5.50;99.90
32097;DHT22;18610;49.916;8.284;2024-03-17T03:46:50;5.50;99.90
32097;DHT22;18610;49.916;8.284;2024-03-17T03:49:19;5.40;99.90
32097;DHT22;18610;49.916;8.284;2024-03-17T03:51:46;5.40;99.90
32097;DHT22;18610;49.916;8.284;2024-03-17T03:54:13;5.30;99.90
32097;DHT22;18610;49.916;8.284;2024-03-17T03:56:39;5.20;99.90
32097;DHT22;18610;49.916;8.284;2024-03-17T03:59:06;5.20;99.90
32097;DHT22;18610;49.916;8.284;2024-03-17T04:01:33;5.30;99.90
32097;DHT22;18610;49.916;8.284;2024-03-17T04:03:59;5.20;99.90
32097;DHT22;18610;49.916;8.284;2024-03-17T04:06:27;5.20;99.90
32097;DHT22;18610;49.916;8.284;2024-03-17T04:08:54;5.20;99.90
32097;DHT22;18610;49.916;8.284;2024-03-17T04:11:21;5.20;99.90
32097;DHT22;18610;49.916;8.284;2024-03-17T04:13:47;5.10;99.90
32097;DHT22;18610;49.916;8.284;2024-03-17T04:16:14;5.10;99.90
32097;DHT22;18610;49.916;8.284;2024-03-17T04:18:41;5.10;99.90
32097;DHT22;18610;49.916;8.284;2024-03-17T04:21:07;5.10;99.90
32097;DHT22;18610;49.916;8.284;2024-03-17T04:23:35;5.10;99.90
32097;DHT22;18610;49.916;8.284;2024-03-17T04:26:04;5.10;99.90
32097;DHT22;18610;49.916;8.284;2024-03-17T04:28:33;5.10;99.90
32097;DHT22;18610;49.916;8.284;2024-03-17T04:31:04;5.00;99.90
32097;DHT22;18610;49.916;8.284;2024-03-17T04:33:31;5.00;99.90
32097;DHT22;18610;49.916;8.284;2024-03-17T04:35:58;5.00;99.90
32097;DHT22;18610;49.916;8.284;2024-03-17T04:38:25;4.90;99.90
32097;DHT22;18610;49.916;8.284;2024-03-17T04:40:53;4.90;99.90
32097;DHT22;18610;49.916;8.284;2024-03-17T04:43:28;5.00;99.90
32097;DHT22;18610;49.916;8.284;2024-03-17T04:46:00;5.00;99.90
32097;DHT22;18610;49.916;8.284;2024-03-17T04:48:27;4.90;99.90
32097;DHT22;18610;49.916;8.284;2024-03-17T04:50:54;5.00;99.90
32097;DHT22;18610;49.916;8.284;2024-03-17T04:53:20;5.00;99.90
32097;DHT22;18610;49.916;8.284;2024-03-17T04:55:47;4.90;99.90
32097;DHT22;18610;49.916;8.284;2024-03-17T04:58:15;4.90;99.90
32097;DHT22;18610;49.916;8.284;2024-03-17T05:00:41;4.90;99.90
32097;DHT22;18610;49.916;8.284;2024-03-17T05:03:08;4.90;99.90
32097;DHT22;18610;49.916;8.284;2024-03-17T05:05:35;4.90;99.90
32097;DHT22;18610;49.916;8.284;2024-03-17T05:08:02;4.90;99.90
32097;DHT22;18610;49.916;8.284;2024-03-17T05:10:29;4.90;99.90
32097;DHT22;18610;49.916;8.284;2024-03-17T05:12:55;4.90;99.90
32097;DHT22;18610;49.916;8.284;2024-03-17T05:15:23;5.00;99.90
32097;DHT22;18610;49.916;8.284;2024-03-17T05:17:50;5.00;99.90
32097;DHT22;18610;49.916;8.284;2024-03-17T05:20:16;5.00;99.90
32097;DHT22;18610;49.916;8.284;2024-03-17T05:22:43;5.00;99.90
32097;DHT22;18610;49.916;8.284;2024-03-17T05:25:12;5.00;99.90
32097;DHT22;18610;49.916;8.284;2024-03-17T05:27:39;5.00;99.90
32097;DHT22;18610;49.916;8.284;2024-03-17T05:30:07;5.00;99.90
32097;DHT22;18610;49.916;8.284;2024-03-17T05:32:36;5.00;99.90
32097;DHT22;18610;49.916;8.284;2024-03-17T05:35:04;5.00;99.90
32097;DHT22;18610;49.916;8.284;2024-03-17T05:37:31;5.00;99.90
32097;DHT22;18610;49.916;8.284;2024-03-17T05:39:57;5.00;99.90
32097;DHT22;18610;49.916;8.284;2024-03-17T05:42:24;5.00;99.90
32097;DHT22;18610;49.916;8.284;2024-03-17T05:44:51;4.90;99.90
32097;DHT22;18610;49.916;8.284;2024-03-17T05:47:18;4.90;99.90
32097;DHT22;18610;49.916;8.284;2024-03-17T05:49:46;4.90;99.90
32097;DHT22;18610;49.916;8.284;2024-03-17T05:52:13;4.90;99.90
32097;DHT22;18610;49.916;8.284;2024-03-17T05:54:40;5.00;99.90
32097;DHT22;18610;49.916;8.284;2024-03-17T05:57:06;5.00;99.90
32097;DHT22;18610;49.916;8.284;2024-03-17T05:59:34;5.10;99.90
32097;DHT22;18610;49.916;8.284;2024-03-17T06:02:01;5.10;99.90
32097;DHT22;18610;49.916;8.284;2024-03-17T06:04:28;5.10;99.90
32097;DHT22;18610;49.916;8.284;2024-03-17T06:06:56;5.10;99.90
32097;DHT22;18610;49.916;8.284;2024-03-17T06:09:25;5.10;99.90
32097;DHT22;18610;49.916;8.284;2024-03-17T06:11:52;5.10;99.90
32097;DHT22;18610;49.916;8.284;2024-03-17T06:14:19;5.10;99.90
32097;DHT22;18610;49.916;8.284;2024-03-17T06:16:46;5.10;99.90
32097;DHT22;18610;49.916;8.284;2024-03-17T06:19:12;5.20;99.90
32097;DHT22;18610;49.916;8.284;2024-03-17T06:21:40;5.20;99.90
32097;DHT22;18610;49.916;8.284;2024-03-17T06:24:08;5.20;99.90
32097;DHT22;18610;49.916;8.284;2024-03-17T06:26:35;5.30;99.90
32097;DHT22;18610;49.916;8.284;2024-03-17T06:29:01;5.30;99.90
32097;DHT22;18610;49.916;8.284;2024-03-17T06:31:28;5.30;99.90
32097;DHT22;18610;49.916;8.284;2024-03-17T06:33:56;5.40;99.90
32097;DHT22;18610;49.916;8.284;2024-03-17T06:36:23;5.40;99.90
32097;DHT22;18610;49.916;8.284;2024-03-17T06:38:49;5.40;99.90
32097;DHT22;18610;49.916;8.284;2024-03-17T06:41:18;5.40;99.90
32097;DHT22;18610;49.916;8.284;2024-03-17T06:43:44;5.50;99.90
32097;DHT22;18610;49.916;8.284;2024-03-17T06:46:11;5.60;99.90
32097;DHT22;18610;49.916;8.284;2024-03-17T06:48:38;5.70;99.90
32097;DHT22;18610;49.916;8.284;2024-03-17T06:51:04;5.70;99.90
32097;DHT22;18610;49.916;8.284;2024-03-17T06:53:31;5.80;99.90
32097;DHT22;18610;49.916;8.284;2024-03-17T06:55:59;5.90;99.90
32097;DHT22;18610;49.916;8.284;2024-03-17T06:58:28;6.00;99.90
32097;DHT22;18610;49.916;8.284;2024-03-17T07:00:56;6.00;99.90
32097;DHT22;18610;49.916;8.284;2024-03-17T07:03:24;6.10;99.90
32097;DHT22;18610;49.916;8.284;2024-03-17T07:05:52;6.20;99.90
32097;DHT22;18610;49.916;8.284;2024-03-17T07:08:19;6.30;99.90
32097;DHT22;18610;49.916;8.284;2024-03-17T07:10:58;6.40;99.90
32097;DHT22;18610;49.916;8.284;2024-03-17T07:13:25;6.50;99.90
32097;DHT22;18610;49.916;8.284;2024-03-17T07:15:53;6.60;99.90
32097;DHT22;18610;49.916;8.284;2024-03-17T07:18:19;6.80;99.90
32097;DHT22;18610;49.916;8.284;2024-03-17T07:20:46;7.00;99.90
32097;DHT22;18610;49.916;8.284;2024-03-17T07:23:13;7.10;99.90
32097;DHT22;18610;49.916;8.284;2024-03-17T07:25:41;7.40;99.90
32097;DHT22;18610;49.916;8.284;2024-03-17T07:28:07;7.60;99.90
32097;DHT22;18610;49.916;8.284;2024-03-17T07:30:34;7.80;99.90
32097;DHT22;18610;49.916;8.284;2024-03-17T07:33:02;8.00;99.90
32097;DHT22;18610;49.916;8.284;2024-03-17T07:35:29;8.20;99.90
32097;DHT22;18610;49.916;8.284;2024-03-17T07:37:56;8.40;99.90
32097;DHT22;18610;49.916;8.284;2024-03-17T07:40:22;8.70;99.90
32097;DHT22;18610;49.916;8.284;2024-03-17T07:42:49;8.80;99.90
32097;DHT22;18610;49.916;8.284;2024-03-17T07:45:16;9.00;99.90
32097;DHT22;18610;49.916;8.284;2024-03-17T07:47:44;9.20;99.90
32097;DHT22;18610;49.916;8.284;2024-03-17T07:50:12;9.30;99.90
32097;DHT22;18610;49.916;8.284;2024-03-17T07:52:39;9.40;99.90
32097;DHT22;18610;49.916;8.284;2024-03-17T07:55:06;9.60;99.90
32097;DHT22;18610;49.916;8.284;2024-03-17T07:57:34;9.70;99.90
32097;DHT22;18610;49.916;8.284;2024-03-17T08:00:01;9.80;99.90
32097;DHT22;18610;49.916;8.284;2024-03-17T08:02:28;9.90;99.90
32097;DHT22;18610;49.916;8.284;2024-03-17T08:04:55;10.00;99.90
32097;DHT22;18610;49.916;8.284;2024-03-17T08:07:23;10.20;99.90
32097;DHT22;18610;49.916;8.284;2024-03-17T08:09:49;10.30;99.90
32097;DHT22;18610;49.916;8.284;2024-03-17T08:12:15;10.40;99.90
32097;DHT22;18610;49.916;8.284;2024-03-17T08:14:42;10.50;99.90
32097;DHT22;18610;49.916;8.284;2024-03-17T08:17:09;10.70;99.90
32097;DHT22;18610;49.916;8.284;2024-03-17T08:19:35;10.80;99.90
32097;DHT22;18610;49.916;8.284;2024-03-17T08:22:04;10.90;99.90
32097;DHT22;18610;49.916;8.284;2024-03-17T08:24:32;11.00;99.90
32097;DHT22;18610;49.916;8.284;2024-03-17T08:26:59;11.20;99.90
32097;DHT22;18610;49.916;8.284;2024-03-17T08:29:26;11.30;99.90
32097;DHT22;18610;49.916;8.284;2024-03-17T08:31:53;11.40;99.90
32097;DHT22;18610;49.916;8.284;2024-03-17T08:34:20;11.50;99.90
32097;DHT22;18610;49.916;8.284;2024-03-17T08:36:46;11.70;99.90
32097;DHT22;18610;49.916;8.284;2024-03-17T08:39:13;11.90;99.90
32097;DHT22;18610;49.916;8.284;2024-03-17T08:41:41;12.10;99.90
32097;DHT22;18610;49.916;8.284;2024-03-17T08:44:09;12.20;99.90
32097;DHT22;18610;49.916;8.284;2024-03-17T08:46:35;12.30;99.90
32097;DHT22;18610;49.916;8.284;2024-03-17T08:49:02;12.40;99.90
32097;DHT22;18610;49.916;8.284;2024-03-17T08:51:29;12.40;99.90
32097;DHT22;18610;49.916;8.284;2024-03-17T08:53:55;12.50;99.90
32097;DHT22;18610;49.916;8.284;2024-03-17T08:56:22;12.50;99.90
32097;DHT22;18610;49.916;8.284;2024-03-17T08:58:50;12.50;99.90
32097;DHT22;18610;49.916;8.284;2024-03-17T09:01:17;12.50;99.90
32097;DHT22;18610;49.916;8.284;2024-03-17T09:03:43;12.50;99.80
32097;DHT22;18610;49.916;8.284;2024-03-17T09:06:16;12.60;98.90
32097;DHT22;18610;49.916;8.284;2024-03-17T09:08:45;12.50;99.50
32097;DHT22;18610;49.916;8.284;2024-03-17T09:11:13;12.50;99.20
32097;DHT22;18610;49.916;8.284;2024-03-17T09:13:39;12.50;99.60
32097;DHT22;18610;49.916;8.284;2024-03-17T09:16:08;12.50;97.70
32097;DHT22;18610;49.916;8.284;2024-03-17T09:18:39;12.60;98.30
32097;DHT22;18610;49.916;8.284;2024-03-17T09:21:06;12.80;98.00
32097;DHT22;18610;49.916;8.284;2024-03-17T09:23:34;12.90;97.40
32097;DHT22;18610;49.916;8.284;2024-03-17T09:26:03;13.00;96.60
32097;DHT22;18610;49.916;8.284;2024-03-17T09:28:33;13.00;95.30
32097;DHT22;18610;49.916;8.284;2024-03-17T09:30:59;13.10;96.20
32097;DHT22;18610;49.916;8.284;2024-03-17T09:33:29;13.20;95.30
32097;DHT22;18610;49.916;8.284;2024-03-17T09:35:57;13.30;95.60
32097;DHT22;18610;49.916;8.284;2024-03-17T09:38:23;13.40;95.20
32097;DHT22;18610;49.916;8.284;2024-03-17T09:40:51;13.50;95.40
32097;DHT22;18610;49.916;8.284;2024-03-17T09:43:19;13.60;95.10
32097;DHT22;18610;49.916;8.284;2024-03-17T09:45:45;13.60;95.10
32097;DHT22;18610;49.916;8.284;2024-03-17T09:48:15;13.60;94.90
32097;DHT22;18610;49.916;8.284;2024-03-17T09:50:49;13.70;94.60
32097;DHT22;18610;49.916;8.284;2024-03-17T09:53:17;13.90;94.80
32097;DHT22;18610;49.916;8.284;2024-03-17T09:55:46;13.90;94.40
32097;DHT22;18610;49.916;8.284;2024-03-17T09:58:15;14.00;94.40
32097;DHT22;18610;49.916;8.284;2024-03-17T10:00:43;14.20;93.70
32097;DHT22;18610;49.916;8.284;2024-03-17T10:03:09;14.30;94.40
32097;DHT22;18610;49.916;8.284;2024-03-17T10:05:36;14.40;93.80
32097;DHT22;18610;49.916;8.284;2024-03-17T10:08:05;14.50;93.40
32097;DHT22;18610;49.916;8.284;2024-03-17T10:10:34;14.60;93.50
32097;DHT22;18610;49.916;8.284;2024-03-17T10:13:01;14.70;93.20
32097;DHT22;18610;49.916;8.284;2024-03-17T10:15:27;14.90;93.60
32097;DHT22;18610;49.916;8.284;2024-03-17T10:17:55;15.10;92.90
32097;DHT22;18610;49.916;8.284;2024-03-17T10:20:24;15.20;92.90
32097;DHT22;18610;49.916;8.284;2024-03-17T10:23:02;15.30;92.70
32097;DHT22;18610;49.916;8.284;2024-03-17T10:25:31;15.40;92.10
32097;DHT22;18610;49.916;8.284;2024-03-17T10:27:59;15.40;92.00
32097;DHT22;18610;49.916;8.284;2024-03-17T10:30:27;15.40;91.60
32097;DHT22;18610;49.916;8.284;2024-03-17T10:32:55;15.40;91.90
32097;DHT22;18610;49.916;8.284;2024-03-17T10:35:33;15.40;92.30
32097;DHT22;18610;49.916;8.284;2024-03-17T10:38:01;15.30;91.20
32097;DHT22;18610;49.916;8.284;2024-03-17T10:40:30;15.20;92.00
32097;DHT22;18610;49.916;8.284;2024-03-17T10:43:00;15.10;92.20
32097;DHT22;18610;49.916;8.284;2024-03-17T10:45:28;14.90;92.10
32097;DHT22;18610;49.916;8.284;2024-03-17T10:47:59;14.90;92.50
32097;DHT22;18610;49.916;8.284;2024-03-17T10:50:30;14.90;93.10
32097;DHT22;18610;49.916;8.284;2024-03-17T10:53:01;14.90;93.10
32097;DHT22;18610;49.916;8.284;2024-03-17T10:55:39;14.90;92.80
32097;DHT22;18610;49.916;8.284;2024-03-17T10:58:20;15.00;92.60
32097;DHT22;18610;49.916;8.284;2024-03-17T11:00:50;14.90;92.80
32097;DHT22;18610;49.916;8.284;2024-03-17T11:03:18;15.10;92.60
32097;DHT22;18610;49.916;8.284;2024-03-17T11:05:47;15.30;92.80
32097;DHT22;18610;49.916;8.284;2024-03-17T11:08:16;15.60;92.70
32097;DHT22;18610;49.916;8.284;2024-03-17T11:10:51;15.90;91.40
32097;DHT22;18610;49.916;8.284;2024-03-17T11:13:23;16.10;91.40
32097;DHT22;18610;49.916;8.284;2024-03-17T11:15:50;16.20;90.30
32097;DHT22;18610;49.916;8.284;2024-03-17T11:18:35;16.30;90.80
32097;DHT22;18610;49.916;8.284;2024-03-17T11:21:07;16.50;90.80
32097;DHT22;18610;49.916;8.284;2024-03-17T11:23:37;16.70;90.80
32097;DHT22;18610;49.916;8.284;2024-03-17T11:26:06;16.80;90.30
32097;DHT22;18610;49.916;8.284;2024-03-17T11:28:50;16.80;90.40
32097;DHT22;18610;49.916;8.284;2024-03-17T11:31:37;16.80;90.00
32097;DHT22;18610;49.916;8.284;2024-03-17T11:34:07;16.80;88.40
32097;DHT22;18610;49.916;8.284;2024-03-17T11:36:35;16.80;88.60
32097;DHT22;18610;49.916;8.284;2024-03-17T11:39:03;16.70;89.70
32097;DHT22;18610;49.916;8.284;2024-03-17T11:41:36;16.80;89.60
32097;DHT22;18610;49.916;8.284;2024-03-17T11:44:13;16.90;89.00
32097;DHT22;18610;49.916;8.284;2024-03-17T11:46:40;17.00;89.70
32097;DHT22;18610;49.916;8.284;2024-03-17T11:49:06;17.00;88.70
32097;DHT22;18610;49.916;8.284;2024-03-17T11:51:34;16.90;89.30
32097;DHT22;18610;49.916;8.284;2024-03-17T11:54:00;17.00;89.20
32097;DHT22;18610;49.916;8.284;2024-03-17T11:56:29;17.00;89.80
32097;DHT22;18610;49.916;8.284;2024-03-17T11:59:05;17.00;89.00
32097;DHT22;18610;49.916;8.284;2024-03-17T12:01:34;16.90;88.60
32097;DHT22;18610;49.916;8.284;2024-03-17T12:04:00;16.90;88.80
32097;DHT22;18610;49.916;8.284;2024-03-17T12:06:31;16.80;89.30
32097;DHT22;18610;49.916;8.284;2024-03-17T12:09:08;16.70;89.30
32097;DHT22;18610;49.916;8.284;2024-03-17T12:11:35;16.70;90.30
32097;DHT22;18610;49.916;8.284;2024-03-17T12:14:14;16.60;90.90
32097;DHT22;18610;49.916;8.284;2024-03-17T12:16:51;16.70;90.50
32097;DHT22;18610;49.916;8.284;2024-03-17T12:19:18;16.70;91.00
32097;DHT22;18610;49.916;8.284;2024-03-17T12:21:46;16.80;90.80
32097;DHT22;18610;49.916;8.284;2024-03-17T12:24:16;16.90;91.00
32097;DHT22;18610;49.916;8.284;2024-03-17T12:26:44;17.00;90.60
32097;DHT22;18610;49.916;8.284;2024-03-17T12:29:25;17.10;90.50
32097;DHT22;18610;49.916;8.284;2024-03-17T12:31:54;17.00;90.20
32097;DHT22;18610;49.916;8.284;2024-03-17T12:34:21;17.10;90.10
32097;DHT22;18610;49.916;8.284;2024-03-17T12:36:48;17.00;89.00
32097;DHT22;18610;49.916;8.284;2024-03-17T12:39:18;16.80;90.10
32097;DHT22;18610;49.916;8.284;2024-03-17T12:42:00;16.70;90.00
32097;DHT22;18610;49.916;8.284;2024-03-17T12:44:27;16.60;90.60
32097;DHT22;18610;49.916;8.284;2024-03-17T12:46:55;16.50;90.60
32097;DHT22;18610;49.916;8.284;2024-03-17T12:49:21;16.40;91.10
32097;DHT22;18610;49.916;8.284;2024-03-17T12:51:50;16.40;91.20
32097;DHT22;18610;49.916;8.284;2024-03-17T12:54:22;16.30;91.20
32097;DHT22;18610;49.916;8.284;2024-03-17T12:56:50;16.30;90.80
32097;DHT22;18610;49.916;8.284;2024-03-17T12:59:40;16.20;91.80
32097;DHT22;18610;49.916;8.284;2024-03-17T13:02:33;16.10;91.90
32097;DHT22;18610;49.916;8.284;2024-03-17T13:05:16;16.10;91.20
32097;DHT22;18610;49.916;8.284;2024-03-17T13:07:44;16.00;91.70
32097;DHT22;18610;49.916;8.284;2024-03-17T13:10:12;16.00;91.70
32097;DHT22;18610;49.916;8.284;2024-03-17T13:12:39;15.90;91.60
32097;DHT22;18610;49.916;8.284;2024-03-17T13:15:09;15.70;91.80
32097;DHT22;18610;49.916;8.284;2024-03-17T13:17:36;15.60;92.30
32097;DHT22;18610;49.916;8.284;2024-03-17T13:20:03;15.50;92.60
32097;DHT22;18610;49.916;8.284;2024-03-17T13:22:34;15.40;92.80
32097;DHT22;18610;49.916;8.284;2024-03-17T13:25:00;15.40;92.70
32097;DHT22;18610;49.916;8.284;2024-03-17T13:27:27;15.40;93.10
32097;DHT22;18610;49.916;8.284;2024-03-17T13:29:54;15.40;93.70
32097;DHT22;18610;49.916;8.284;2024-03-17T13:32:22;15.30;93.60
32097;DHT22;18610;49.916;8.284;2024-03-17T13:34:49;15.30;93.80
32097;DHT22;18610;49.916;8.284;2024-03-17T13:37:16;15.30;93.80
32097;DHT22;18610;49.916;8.284;2024-03-17T13:39:43;15.30;94.00
32097;DHT22;18610;49.916;8.284;2024-03-17T13:42:10;15.20;93.80
32097;DHT22;18610;49.916;8.284;2024-03-17T13:44:36;15.30;94.40
32097;DHT22;18610;49.916;8.284;2024-03-17T13:47:03;15.20;95.10
32097;DHT22;18610;49.916;8.284;2024-03-17T13:49:31;15.20;95.20
32097;DHT22;18610;49.916;8.284;2024-03-17T13:51:59;15.10;95.30
32097;DHT22;18610;49.916;8.284;2024-03-17T13:54:25;15.10;95.00
32097;DHT22;18610;49.916;8.284;2024-03-17T13:56:53;15.00;95.00
32097;DHT22;18610;49.916;8.284;2024-03-17T13:59:20;14.90;94.80
32097;DHT22;18610;49.916;8.284;2024-03-17T14:01:47;14.90;94.50
32097;DHT22;18610;49.916;8.284;2024-03-17T14:04:15;14.80;95.20
32097;DHT22;18610;49.916;8.284;2024-03-17T14:06:44;14.80;95.50
32097;DHT22;18610;49.916;8.284;2024-03-17T14:09:11;14.80;95.60
32097;DHT22;18610;49.916;8.284;2024-03-17T14:11:38;14.80;95.70
32097;DHT22;18610;49.916;8.284;2024-03-17T14:14:05;14.80;95.10
32097;DHT22;18610;49.916;8.284;2024-03-17T14:16:33;14.90;95.40
32097;DHT22;18610;49.916;8.284;2024-03-17T14:19:00;14.80;95.40
32097;DHT22;18610;49.916;8.284;2024-03-17T14:21:27;14.80;95.70
32097;DHT22;18610;49.916;8.284;2024-03-17T14:23:56;14.90;95.90
32097;DHT22;18610;49.916;8.284;2024-03-17T14:26:23;14.90;96.00
32097;DHT22;18610;49.916;8.284;2024-03-17T14:28:50;14.80;96.30
32097;DHT22;18610;49.916;8.284;2024-03-17T14:31:19;14.80;95.60
32097;DHT22;18610;49.916;8.284;2024-03-17T14:33:46;14.80;95.40
32097;DHT22;18610;49.916;8.284;2024-03-17T14:36:12;14.70;95.10
32097;DHT22;18610;49.916;8.284;2024-03-17T14:38:39;14.70;96.00
32097;DHT22;18610;49.916;8.284;2024-03-17T14:41:07;14.70;95.50
32097;DHT22;18610;49.916;8.284;2024-03-17T14:43:34;14.70;95.70
32097;DHT22;18610;49.916;8.284;2024-03-17T14:46:04;14.80;96.40
32097;DHT22;18610;49.916;8.284;2024-03-17T14:48:33;14.90;96.10
32097;DHT22;18610;49.916;8.284;2024-03-17T14:50:59;15.00;96.30
32097;DHT22;18610;49.916;8.284;2024-03-17T14:53:26;15.10;96.30
32097;DHT22;18610;49.916;8.284;2024-03-17T14:55:53;15.10;95.40
32097;DHT22;18610;49.916;8.284;2024-03-17T14:58:21;15.10;95.30
32097;DHT22;18610;49.916;8.284;2024-03-17T15:00:48;15.10;95.20
32097;DHT22;18610;49.916;8.284;2024-03-17T15:03:15;15.10;95.00
32097;DHT22;18610;49.916;8.284;2024-03-17T15:05:41;15.10;95.00
32097;DHT22;18610;49.916;8.284;2024-03-17T15:08:08;15.30;95.40
32097;DHT22;18610;49.916;8.284;2024-03-17T15:10:36;15.30;94.70
32097;DHT22;18610;49.916;8.284;2024-03-17T15:13:03;15.40;94.40
32097;DHT22;18610;49.916;8.284;2024-03-17T15:15:31;15.40;94.90
32097;DHT22;18610;49.916;8.284;2024-03-17T15:17:58;15.50;94.60
32097;DHT22;18610;49.916;8.284;2024-03-17T15:20:25;15.60;95.20
32097;DHT22;18610;49.916;8.284;2024-03-17T15:22:51;15.80;94.80
32097;DHT22;18610;49.916;8.284;2024-03-17T15:25:19;16.00;94.60
32097;DHT22;18610;49.916;8.284;2024-03-17T15:27:49;16.20;93.60
32097;DHT22;18610;49.916;8.284;2024-03-17T15:30:17;16.40;92.80
32097;DHT22;18610;49.916;8.284;2024-03-17T15:32:46;16.50;93.00
32097;DHT22;18610;49.916;8.284;2024-03-17T15:35:14;16.40;93.20
32097;DHT22;18610;49.916;8.284;2024-03-17T15:37:41;16.40;93.20
32097;DHT22;18610;49.916;8.284;2024-03-17T15:40:09;16.40;92.60
32097;DHT22;18610;49.916;8.284;2024-03-17T15:42:42;16.40;92.90